sensor_id;sensor_type;location;lat;lon;timestamp;temperature;humidity
4431;DHT22;2228;48.140;11.488;2023-09-30T00:00:49;17.20;1.00
4431;DHT22;2228;48.140;11.488;2023-09-30T00:03:16;17.10;1.00
4431;DHT22;2228;48.140;11.488;2023-09-30T00:05:43;17.00;1.00
4431;DHT22;2228;48.140;11.488;2023-09-30T00:08:11;16.90;1.00
4431;DHT22;2228;48.140;11.488;2023-09-30T00:10:43;16.90;1.00
4431;DHT22;2228;48.140;11.488;2023-09-30T00:13:14;17.00;1.00
4431;DHT22;2228;48.140;11.488;2023-09-30T00:15:42;16.80;1.00
4431;DHT22;2228;48.140;11.488;2023-09-30T00:18:09;16.90;1.00
4431;DHT22;2228;48.140;11.488;2023-09-30T00:20:36;16.70;1.00
4431;DHT22;2228;48.140;11.488;2023-09-30T00:23:03;16.60;1.00
4431;DHT22;2228;48.140;11.488;2023-09-30T00:25:31;16.40;1.00
4431;DHT22;2228;48.140;11.488;2023-09-30T00:28:00;16.40;1.00
4431;DHT22;2228;48.140;11.488;2023-09-30T00:30:27;16.40;1.00
4431;DHT22;2228;48.140;11.488;2023-09-30T00:32:55;16.40;1.00
4431;DHT22;2228;48.140;11.488;2023-09-30T00:35:22;16.40;1.00
4431;DHT22;2228;48.140;11.488;2023-09-30T00:37:50;16.40;1.00
4431;DHT22;2228;48.140;11.488;2023-09-30T00:40:17;16.40;1.00
4431;DHT22;2228;48.140;11.488;2023-09-30T00:42:45;16.30;1.00
4431;DHT22;2228;48.140;11.488;2023-09-30T00:45:13;16.20;4.00
4431;DHT22;2228;48.140;11.488;2023-09-30T00:47:40;16.20;6.70
4431;DHT22;2228;48.140;11.488;2023-09-30T00:50:08;16.10;59.40
4431;DHT22;2228;48.140;11.488;2023-09-30T00:52:38;16.20;29.20
4431;DHT22;2228;48.140;11.488;2023-09-30T00:55:07;16.20;42.00
4431;DHT22;2228;48.140;11.488;2023-09-30T00:57:37;16.10;45.20
4431;DHT22;2228;48.140;11.488;2023-09-30T01:00:05;16.10;56.80
4431;DHT22;2228;48.140;11.488;2023-09-30T01:02:39;16.00;99.90
4431;DHT22;2228;48.140;11.488;2023-09-30T01:05:06;16.10;90.60
4431;DHT22;2228;48.140;11.488;2023-09-30T01:07:34;16.10;99.90
4431;DHT22;2228;48.140;11.488;2023-09-30T01:10:01;16.20;99.20
4431;DHT22;2228;48.140;11.488;2023-09-30T01:12:29;16.30;62.90
4431;DHT22;2228;48.140;11.488;2023-09-30T01:14:58;16.30;64.20
4431;DHT22;2228;48.140;11.488;2023-09-30T01:17:27;16.40;57.80
4431;DHT22;2228;48.140;11.488;2023-09-30T01:19:57;16.50;20.80
4431;DHT22;2228;48.140;11.488;2023-09-30T01:22:27;16.60;1.10
4431;DHT22;2228;48.140;11.488;2023-09-30T01:24:55;16.70;15.70
4431;DHT22;2228;48.140;11.488;2023-09-30T01:27:24;16.60;5.30
4431;DHT22;2228;48.140;11.488;2023-09-30T01:29:56;16.60;9.10
4431;DHT22;2228;48.140;11.488;2023-09-30T01:32:25;16.70;23.40
4431;DHT22;2228;48.140;11.488;2023-09-30T01:34:52;16.60;16.30
4431;DHT22;2228;48.140;11.488;2023-09-30T01:37:19;16.60;29.70
4431;DHT22;2228;48.140;11.488;2023-09-30T01:39:50;16.60;12.50
4431;DHT22;2228;48.140;11.488;2023-09-30T01:42:20;16.60;13.80
4431;DHT22;2228;48.140;11.488;2023-09-30T01:44:48;16.60;6.80
4431;DHT22;2228;48.140;11.488;2023-09-30T01:47:15;16.50;17.00
4431;DHT22;2228;48.140;11.488;2023-09-30T01:49:42;16.30;38.80
4431;DHT22;2228;48.140;11.488;2023-09-30T01:52:09;16.50;51.60
4431;DHT22;2228;48.140;11.488;2023-09-30T01:54:37;16.30;97.10
4431;DHT22;2228;48.140;11.488;2023-09-30T01:57:06;16.10;84.20
4431;DHT22;2228;48.140;11.488;2023-09-30T01:59:33;16.00;99.90
4431;DHT22;2228;48.140;11.488;2023-09-30T02:02:00;16.00;99.90
4431;DHT22;2228;48.140;11.488;2023-09-30T02:04:28;16.00;99.90
4431;DHT22;2228;48.140;11.488;2023-09-30T02:06:56;16.10;99.90
4431;DHT22;2228;48.140;11.488;2023-09-30T02:09:23;16.10;99.90
4431;DHT22;2228;48.140;11.488;2023-09-30T02:11:51;16.10;99.90
4431;DHT22;2228;48.140;11.488;2023-09-30T02:14:20;16.10;99.90
4431;DHT22;2228;48.140;11.488;2023-09-30T02:16:50;16.00;99.90
4431;DHT22;2228;48.140;11.488;2023-09-30T02:19:19;16.00;99.90
4431;DHT22;2228;48.140;11.488;2023-09-30T02:21:47;16.10;99.90
4431;DHT22;2228;48.140;11.488;2023-09-30T02:24:14;16.20;99.90
4431;DHT22;2228;48.140;11.488;2023-09-30T02:26:41;16.20;99.90
4431;DHT22;2228;48.140;11.488;2023-09-30T02:29:09;16.50;99.90
4431;DHT22;2228;48.140;11.488;2023-09-30T02:31:38;16.40;90.70
4431;DHT22;2228;48.140;11.488;2023-09-30T02:34:04;16.60;74.40
4431;DHT22;2228;48.140;11.488;2023-09-30T02:36:33;16.40;99.90
4431;DHT22;2228;48.140;11.488;2023-09-30T02:39:01;16.50;84.60
4431;DHT22;2228;48.140;11.488;2023-09-30T02:41:29;16.50;61.30
4431;DHT22;2228;48.140;11.488;2023-09-30T02:43:56;16.70;60.80
4431;DHT22;2228;48.140;11.488;2023-09-30T02:46:23;16.60;48.30
4431;DHT22;2228;48.140;11.488;2023-09-30T02:48:53;16.60;53.70
4431;DHT22;2228;48.140;11.488;2023-09-30T02:51:20;16.50;58.40
4431;DHT22;2228;48.140;11.488;2023-09-30T02:53:47;16.50;54.40
4431;DHT22;2228;48.140;11.488;2023-09-30T02:56:15;16.50;38.60
4431;DHT22;2228;48.140;11.488;2023-09-30T02:58:45;16.60;28.10
4431;DHT22;2228;48.140;11.488;2023-09-30T03:01:14;16.50;46.70
4431;DHT22;2228;48.140;11.488;2023-09-30T03:03:43;16.60;53.00
4431;DHT22;2228;48.140;11.488;2023-09-30T03:06:12;16.50;46.60
4431;DHT22;2228;48.140;11.488;2023-09-30T03:08:40;16.50;51.10
4431;DHT22;2228;48.140;11.488;2023-09-30T03:11:07;16.50;39.60
4431;DHT22;2228;48.140;11.488;2023-09-30T03:13:36;16.70;29.00
4431;DHT22;2228;48.140;11.488;2023-09-30T03:16:06;16.50;47.70
4431;DHT22;2228;48.140;11.488;2023-09-30T03:18:33;16.70;38.10
4431;DHT22;2228;48.140;11.488;2023-09-30T03:21:01;16.50;65.10
4431;DHT22;2228;48.140;11.488;2023-09-30T03:23:36;16.50;29.00
4431;DHT22;2228;48.140;11.488;2023-09-30T03:26:04;16.70;44.10
4431;DHT22;2228;48.140;11.488;2023-09-30T03:28:35;16.60;32.60
4431;DHT22;2228;48.140;11.488;2023-09-30T03:31:03;16.50;42.20
4431;DHT22;2228;48.140;11.488;2023-09-30T03:33:31;16.50;41.40
4431;DHT22;2228;48.140;11.488;2023-09-30T03:35:59;16.60;27.70
4431;DHT22;2228;48.140;11.488;2023-09-30T03:38:29;16.60;40.10
4431;DHT22;2228;48.140;11.488;2023-09-30T03:40:59;16.50;31.10
4431;DHT22;2228;48.140;11.488;2023-09-30T03:43:33;16.70;11.00
4431;DHT22;2228;48.140;11.488;2023-09-30T03:46:06;16.70;15.30
4431;DHT22;2228;48.140;11.488;2023-09-30T03:48:33;16.70;6.00
4431;DHT22;2228;48.140;11.488;2023-09-30T03:51:09;16.70;29.80
4431;DHT22;2228;48.140;11.488;2023-09-30T03:53:39;17.10;19.40
4431;DHT22;2228;48.140;11.488;2023-09-30T03:56:11;16.70;5.50
4431;DHT22;2228;48.140;11.488;2023-09-30T03:58:39;16.70;24.60
4431;DHT22;2228;48.140;11.488;2023-09-30T04:01:07;16.70;35.40
4431;DHT22;2228;48.140;11.488;2023-09-30T04:03:36;16.70;7.50
4431;DHT22;2228;48.140;11.488;2023-09-30T04:06:05;16.70;1.00
4431;DHT22;2228;48.140;11.488;2023-09-30T04:08:33;16.70;7.50
4431;DHT22;2228;48.140;11.488;2023-09-30T04:11:02;16.60;21.10
4431;DHT22;2228;48.140;11.488;2023-09-30T04:13:31;16.70;7.80
4431;DHT22;2228;48.140;11.488;2023-09-30T04:15:58;16.70;10.60
4431;DHT22;2228;48.140;11.488;2023-09-30T04:18:28;16.80;5.40
4431;DHT22;2228;48.140;11.488;2023-09-30T04:20:56;16.70;3.00
4431;DHT22;2228;48.140;11.488;2023-09-30T04:23:23;16.70;6.00
4431;DHT22;2228;48.140;11.488;2023-09-30T04:25:50;16.70;18.70
4431;DHT22;2228;48.140;11.488;2023-09-30T04:28:17;16.60;26.90
4431;DHT22;2228;48.140;11.488;2023-09-30T04:30:49;16.70;14.60
4431;DHT22;2228;48.140;11.488;2023-09-30T04:33:18;16.80;1.00
4431;DHT22;2228;48.140;11.488;2023-09-30T04:35:47;16.80;1.00
4431;DHT22;2228;48.140;11.488;2023-09-30T04:38:14;16.80;1.00
4431;DHT22;2228;48.140;11.488;2023-09-30T04:40:41;16.80;1.00
4431;DHT22;2228;48.140;11.488;2023-09-30T04:43:10;16.70;1.00
4431;DHT22;2228;48.140;11.488;2023-09-30T04:45:39;16.60;19.40
4431;DHT22;2228;48.140;11.488;2023-09-30T04:48:08;16.50;23.90
4431;DHT22;2228;48.140;11.488;2023-09-30T04:50:35;16.40;48.30
4431;DHT22;2228;48.140;11.488;2023-09-30T04:53:03;16.60;18.30
4431;DHT22;2228;48.140;11.488;2023-09-30T04:55:30;16.30;48.10
4431;DHT22;2228;48.140;11.488;2023-09-30T04:57:58;16.30;70.90
4431;DHT22;2228;48.140;11.488;2023-09-30T05:00:25;16.10;79.60
4431;DHT22;2228;48.140;11.488;2023-09-30T05:02:55;16.20;82.80
4431;DHT22;2228;48.140;11.488;2023-09-30T05:05:26;16.20;81.00
4431;DHT22;2228;48.140;11.488;2023-09-30T05:07:54;16.10;93.80
4431;DHT22;2228;48.140;11.488;2023-09-30T05:10:24;15.90;99.90
4431;DHT22;2228;48.140;11.488;2023-09-30T05:12:52;16.00;99.90
4431;DHT22;2228;48.140;11.488;2023-09-30T05:15:21;15.90;99.90
4431;DHT22;2228;48.140;11.488;2023-09-30T05:17:48;15.90;99.90
4431;DHT22;2228;48.140;11.488;2023-09-30T05:20:16;15.90;99.90
4431;DHT22;2228;48.140;11.488;2023-09-30T05:22:47;16.00;99.90
4431;DHT22;2228;48.140;11.488;2023-09-30T05:25:16;16.00;99.90
4431;DHT22;2228;48.140;11.488;2023-09-30T05:27:44;16.10;99.90
4431;DHT22;2228;48.140;11.488;2023-09-30T05:30:13;16.20;99.90
4431;DHT22;2228;48.140;11.488;2023-09-30T05:32:41;16.20;99.90
4431;DHT22;2228;48.140;11.488;2023-09-30T05:35:12;16.30;90.00
4431;DHT22;2228;48.140;11.488;2023-09-30T05:37:40;16.40;97.40
4431;DHT22;2228;48.140;11.488;2023-09-30T05:40:10;15.90;99.90
4431;DHT22;2228;48.140;11.488;2023-09-30T05:42:46;15.90;99.90
4431;DHT22;2228;48.140;11.488;2023-09-30T05:45:27;16.00;99.90
4431;DHT22;2228;48.140;11.488;2023-09-30T05:48:01;15.80;99.90
4431;DHT22;2228;48.140;11.488;2023-09-30T05:50:37;15.90;99.90
4431;DHT22;2228;48.140;11.488;2023-09-30T05:53:06;16.10;99.90
4431;DHT22;2228;48.140;11.488;2023-09-30T05:55:45;16.10;99.90
4431;DHT22;2228;48.140;11.488;2023-09-30T06:03:40;16.30;99.90
4431;DHT22;2228;48.140;11.488;2023-09-30T06:06:11;16.50;79.60
4431;DHT22;2228;48.140;11.488;2023-09-30T06:08:41;16.60;51.80
4431;DHT22;2228;48.140;11.488;2023-09-30T06:11:18;16.70;37.50
4431;DHT22;2228;48.140;11.488;2023-09-30T06:13:50;16.70;59.40
4431;DHT22;2228;48.140;11.488;2023-09-30T06:16:20;16.70;8.10
4431;DHT22;2228;48.140;11.488;2023-09-30T06:18:47;16.50;3.90
4431;DHT22;2228;48.140;11.488;2023-09-30T06:40:18;16.60;1.00
4431;DHT22;2228;48.140;11.488;2023-09-30T06:42:45;16.80;1.00
4431;DHT22;2228;48.140;11.488;2023-09-30T06:45:12;16.70;1.00
4431;DHT22;2228;48.140;11.488;2023-09-30T06:47:40;16.70;1.00
4431;DHT22;2228;48.140;11.488;2023-09-30T06:50:09;16.80;1.00
4431;DHT22;2228;48.140;11.488;2023-09-30T06:52:39;16.90;1.00
4431;DHT22;2228;48.140;11.488;2023-09-30T06:55:08;16.90;1.00
4431;DHT22;2228;48.140;11.488;2023-09-30T06:57:38;16.70;1.00
4431;DHT22;2228;48.140;11.488;2023-09-30T07:00:07;17.00;1.00
4431;DHT22;2228;48.140;11.488;2023-09-30T07:02:35;17.10;1.00
4431;DHT22;2228;48.140;11.488;2023-09-30T07:05:05;16.90;1.00
4431;DHT22;2228;48.140;11.488;2023-09-30T07:07:32;17.10;1.00
4431;DHT22;2228;48.140;11.488;2023-09-30T07:09:59;17.00;1.00
4431;DHT22;2228;48.140;11.488;2023-09-30T07:12:27;17.20;1.00
4431;DHT22;2228;48.140;11.488;2023-09-30T07:14:55;17.30;1.00
4431;DHT22;2228;48.140;11.488;2023-09-30T07:17:23;17.30;1.00
4431;DHT22;2228;48.140;11.488;2023-09-30T07:19:49;17.30;1.00
4431;DHT22;2228;48.140;11.488;2023-09-30T07:22:16;17.40;1.00
4431;DHT22;2228;48.140;11.488;2023-09-30T07:24:44;17.50;1.00
4431;DHT22;2228;48.140;11.488;2023-09-30T07:27:11;17.50;1.00
4431;DHT22;2228;48.140;11.488;2023-09-30T07:29:37;17.80;1.00
4431;DHT22;2228;48.140;11.488;2023-09-30T07:32:07;17.90;1.00
4431;DHT22;2228;48.140;11.488;2023-09-30T07:34:35;17.80;1.00
4431;DHT22;2228;48.140;11.488;2023-09-30T07:37:02;17.60;1.00
4431;DHT22;2228;48.140;11.488;2023-09-30T07:39:29;17.60;1.00
4431;DHT22;2228;48.140;11.488;2023-09-30T07:41:56;17.60;1.00
4431;DHT22;2228;48.140;11.488;2023-09-30T07:44:23;17.80;1.00
4431;DHT22;2228;48.140;11.488;2023-09-30T07:46:50;18.00;1.00
4431;DHT22;2228;48.140;11.488;2023-09-30T07:49:19;18.20;1.00
4431;DHT22;2228;48.140;11.488;2023-09-30T07:51:46;18.60;1.00
4431;DHT22;2228;48.140;11.488;2023-09-30T07:54:13;18.60;1.00
4431;DHT22;2228;48.140;11.488;2023-09-30T07:56:40;18.50;1.00
4431;DHT22;2228;48.140;11.488;2023-09-30T07:59:07;19.30;1.00
4431;DHT22;2228;48.140;11.488;2023-09-30T08:01:35;18.40;1.00
4431;DHT22;2228;48.140;11.488;2023-09-30T08:04:03;18.40;1.00
4431;DHT22;2228;48.140;11.488;2023-09-30T08:06:31;18.40;1.00
4431;DHT22;2228;48.140;11.488;2023-09-30T08:08:58;18.70;1.00
4431;DHT22;2228;48.140;11.488;2023-09-30T08:11:25;18.80;1.00
4431;DHT22;2228;48.140;11.488;2023-09-30T08:13:53;19.10;1.00
4431;DHT22;2228;48.140;11.488;2023-09-30T08:16:20;19.10;1.00
4431;DHT22;2228;48.140;11.488;2023-09-30T08:18:47;19.10;1.00
4431;DHT22;2228;48.140;11.488;2023-09-30T08:21:14;18.90;1.00
4431;DHT22;2228;48.140;11.488;2023-09-30T08:23:42;19.00;1.00
4431;DHT22;2228;48.140;11.488;2023-09-30T08:26:09;18.80;1.00
4431;DHT22;2228;48.140;11.488;2023-09-30T08:28:37;18.80;1.00
4431;DHT22;2228;48.140;11.488;2023-09-30T08:31:04;18.90;1.00
4431;DHT22;2228;48.140;11.488;2023-09-30T08:33:32;18.80;1.00
4431;DHT22;2228;48.140;11.488;2023-09-30T08:36:02;19.00;1.00
4431;DHT22;2228;48.140;11.488;2023-09-30T08:38:33;19.60;1.00
4431;DHT22;2228;48.140;11.488;2023-09-30T08:41:02;20.00;1.00
4431;DHT22;2228;48.140;11.488;2023-09-30T08:43:29;20.30;1.00
4431;DHT22;2228;48.140;11.488;2023-09-30T08:45:58;20.40;1.00
4431;DHT22;2228;48.140;11.488;2023-09-30T08:48:26;20.40;1.00
4431;DHT22;2228;48.140;11.488;2023-09-30T08:50:54;20.00;1.00
4431;DHT22;2228;48.140;11.488;2023-09-30T08:53:22;20.30;1.00
4431;DHT22;2228;48.140;11.488;2023-09-30T08:55:52;19.80;1.00
4431;DHT22;2228;48.140;11.488;2023-09-30T08:58:23;19.80;1.00
4431;DHT22;2228;48.140;11.488;2023-09-30T09:00:50;19.70;1.00
4431;DHT22;2228;48.140;11.488;2023-09-30T09:03:19;20.00;1.00
4431;DHT22;2228;48.140;11.488;2023-09-30T09:05:46;20.80;1.00
4431;DHT22;2228;48.140;11.488;2023-09-30T09:08:13;20.30;1.00
4431;DHT22;2228;48.140;11.488;2023-09-30T09:10:53;20.30;1.00
4431;DHT22;2228;48.140;11.488;2023-09-30T09:13:23;20.00;1.00
4431;DHT22;2228;48.140;11.488;2023-09-30T09:16:04;20.10;1.00
4431;DHT22;2228;48.140;11.488;2023-09-30T09:18:32;20.30;1.00
4431;DHT22;2228;48.140;11.488;2023-09-30T09:21:11;20.20;1.00
4431;DHT22;2228;48.140;11.488;2023-09-30T09:23:39;20.70;1.00
4431;DHT22;2228;48.140;11.488;2023-09-30T09:26:06;20.60;1.00
4431;DHT22;2228;48.140;11.488;2023-09-30T09:28:38;21.00;1.00
4431;DHT22;2228;48.140;11.488;2023-09-30T09:31:21;20.70;1.00
4431;DHT22;2228;48.140;11.488;2023-09-30T09:33:49;20.50;1.00
4431;DHT22;2228;48.140;11.488;2023-09-30T09:36:17;20.50;1.00
4431;DHT22;2228;48.140;11.488;2023-09-30T09:38:46;20.20;1.00
4431;DHT22;2228;48.140;11.488;2023-09-30T09:41:15;20.20;1.00
4431;DHT22;2228;48.140;11.488;2023-09-30T09:43:44;20.30;1.00
4431;DHT22;2228;48.140;11.488;2023-09-30T09:46:12;20.50;1.00
4431;DHT22;2228;48.140;11.488;2023-09-30T09:48:39;20.90;1.00
4431;DHT22;2228;48.140;11.488;2023-09-30T09:51:09;21.10;1.00
4431;DHT22;2228;48.140;11.488;2023-09-30T09:53:39;21.60;1.00
4431;DHT22;2228;48.140;11.488;2023-09-30T09:56:08;22.00;1.00
4431;DHT22;2228;48.140;11.488;2023-09-30T09:58:39;22.50;99.90
4431;DHT22;2228;48.140;11.488;2023-09-30T10:01:10;23.20;99.90
4431;DHT22;2228;48.140;11.488;2023-09-30T10:03:38;23.50;99.90
4431;DHT22;2228;48.140;11.488;2023-09-30T10:06:05;23.40;99.90
4431;DHT22;2228;48.140;11.488;2023-09-30T10:08:37;23.20;99.90
4431;DHT22;2228;48.140;11.488;2023-09-30T10:11:06;23.50;99.90
4431;DHT22;2228;48.140;11.488;2023-09-30T10:13:52;23.50;99.90
4431;DHT22;2228;48.140;11.488;2023-09-30T10:16:49;23.40;99.90
4431;DHT22;2228;48.140;11.488;2023-09-30T10:19:20;23.90;99.90
4431;DHT22;2228;48.140;11.488;2023-09-30T10:22:20;24.00;99.90
4431;DHT22;2228;48.140;11.488;2023-09-30T10:24:53;24.70;99.90
4431;DHT22;2228;48.140;11.488;2023-09-30T10:27:34;25.20;99.90
4431;DHT22;2228;48.140;11.488;2023-09-30T10:30:07;24.40;99.90
4431;DHT22;2228;48.140;11.488;2023-09-30T10:33:09;24.30;99.90
4431;DHT22;2228;48.140;11.488;2023-09-30T10:35:47;24.00;99.90
4431;DHT22;2228;48.140;11.488;2023-09-30T10:38:36;24.30;99.90
4431;DHT22;2228;48.140;11.488;2023-09-30T10:41:07;24.50;99.90
4431;DHT22;2228;48.140;11.488;2023-09-30T10:43:35;24.70;99.90
4431;DHT22;2228;48.140;11.488;2023-09-30T10:46:03;24.00;99.90
4431;DHT22;2228;48.140;11.488;2023-09-30T10:48:37;23.80;99.90
4431;DHT22;2228;48.140;11.488;2023-09-30T10:51:16;23.80;99.90
4431;DHT22;2228;48.140;11.488;2023-09-30T10:53:48;24.50;99.90
4431;DHT22;2228;48.140;11.488;2023-09-30T10:56:17;24.70;99.90
4431;DHT22;2228;48.140;11.488;2023-09-30T10:58:45;24.00;99.90
4431;DHT22;2228;48.140;11.488;2023-09-30T11:01:13;23.60;99.90
4431;DHT22;2228;48.140;11.488;2023-09-30T11:03:42;23.60;99.90
4431;DHT22;2228;48.140;11.488;2023-09-30T11:06:12;23.20;99.90
4431;DHT22;2228;48.140;11.488;2023-09-30T11:08:46;23.30;99.90
4431;DHT22;2228;48.140;11.488;2023-09-30T11:11:13;23.70;99.90
4431;DHT22;2228;48.140;11.488;2023-09-30T11:13:41;24.40;99.90
4431;DHT22;2228;48.140;11.488;2023-09-30T11:16:08;25.40;99.90
4431;DHT22;2228;48.140;11.488;2023-09-30T11:18:35;24.70;99.90
4431;DHT22;2228;48.140;11.488;2023-09-30T11:21:06;24.60;99.90
4431;DHT22;2228;48.140;11.488;2023-09-30T11:23:36;24.60;99.90
4431;DHT22;2228;48.140;11.488;2023-09-30T11:26:04;24.60;99.90
4431;DHT22;2228;48.140;11.488;2023-09-30T11:28:39;24.90;99.90
4431;DHT22;2228;48.140;11.488;2023-09-30T11:31:09;24.80;99.90
4431;DHT22;2228;48.140;11.488;2023-09-30T11:33:50;24.60;99.90
4431;DHT22;2228;48.140;11.488;2023-09-30T11:36:20;24.30;99.90
4431;DHT22;2228;48.140;11.488;2023-09-30T11:38:49;23.70;99.90
4431;DHT22;2228;48.140;11.488;2023-09-30T11:41:16;23.10;99.90
4431;DHT22;2228;48.140;11.488;2023-09-30T11:44:01;22.80;99.90
4431;DHT22;2228;48.140;11.488;2023-09-30T11:46:30;22.90;99.90
4431;DHT22;2228;48.140;11.488;2023-09-30T11:49:00;22.60;99.90
4431;DHT22;2228;48.140;11.488;2023-09-30T11:51:29;22.60;99.90
4431;DHT22;2228;48.140;11.488;2023-09-30T11:53:57;22.60;99.90
4431;DHT22;2228;48.140;11.488;2023-09-30T11:56:24;22.30;99.90
4431;DHT22;2228;48.140;11.488;2023-09-30T11:58:55;22.60;99.90
4431;DHT22;2228;48.140;11.488;2023-09-30T12:01:24;23.10;99.90
4431;DHT22;2228;48.140;11.488;2023-09-30T12:03:52;23.90;99.90
4431;DHT22;2228;48.140;11.488;2023-09-30T12:06:21;24.60;99.90
4431;DHT22;2228;48.140;11.488;2023-09-30T12:08:50;25.20;99.90
4431;DHT22;2228;48.140;11.488;2023-09-30T12:11:17;25.10;99.90
4431;DHT22;2228;48.140;11.488;2023-09-30T12:13:44;25.20;99.90
4431;DHT22;2228;48.140;11.488;2023-09-30T12:16:14;25.50;99.90
4431;DHT22;2228;48.140;11.488;2023-09-30T12:18:42;26.00;99.90
4431;DHT22;2228;48.140;11.488;2023-09-30T12:21:09;26.10;99.90
4431;DHT22;2228;48.140;11.488;2023-09-30T12:23:37;26.00;99.90
4431;DHT22;2228;48.140;11.488;2023-09-30T12:26:05;26.10;99.90
4431;DHT22;2228;48.140;11.488;2023-09-30T12:28:33;26.20;99.90
4431;DHT22;2228;48.140;11.488;2023-09-30T12:31:01;26.60;99.90
4431;DHT22;2228;48.140;11.488;2023-09-30T12:33:30;26.80;99.90
4431;DHT22;2228;48.140;11.488;2023-09-30T12:35:58;26.40;99.90
4431;DHT22;2228;48.140;11.488;2023-09-30T12:38:25;25.90;99.90
4431;DHT22;2228;48.140;11.488;2023-09-30T12:40:54;25.10;99.90
4431;DHT22;2228;48.140;11.488;2023-09-30T12:43:22;24.40;99.90
4431;DHT22;2228;48.140;11.488;2023-09-30T12:45:49;23.70;99.90
4431;DHT22;2228;48.140;11.488;2023-09-30T12:48:16;23.10;99.90
4431;DHT22;2228;48.140;11.488;2023-09-30T12:50:44;22.60;99.90
4431;DHT22;2228;48.140;11.488;2023-09-30T12:55:56;22.70;99.90
4431;DHT22;2228;48.140;11.488;2023-09-30T12:58:26;22.70;99.90
4431;DHT22;2228;48.140;11.488;2023-09-30T13:00:54;22.60;99.90
4431;DHT22;2228;48.140;11.488;2023-09-30T13:03:21;22.40;99.90
4431;DHT22;2228;48.140;11.488;2023-09-30T13:05:49;22.30;99.90
4431;DHT22;2228;48.140;11.488;2023-09-30T13:08:16;22.30;99.90
4431;DHT22;2228;48.140;11.488;2023-09-30T13:10:43;22.70;99.90
4431;DHT22;2228;48.140;11.488;2023-09-30T13:13:11;23.40;99.90
4431;DHT22;2228;48.140;11.488;2023-09-30T13:15:39;24.20;99.90
4431;DHT22;2228;48.140;11.488;2023-09-30T13:18:07;24.40;99.90
4431;DHT22;2228;48.140;11.488;2023-09-30T13:20:34;24.40;99.90
4431;DHT22;2228;48.140;11.488;2023-09-30T13:23:01;24.20;99.90
4431;DHT22;2228;48.140;11.488;2023-09-30T13:25:29;24.00;99.90
4431;DHT22;2228;48.140;11.488;2023-09-30T13:27:56;23.90;99.90
4431;DHT22;2228;48.140;11.488;2023-09-30T13:30:23;24.00;99.90
4431;DHT22;2228;48.140;11.488;2023-09-30T13:32:52;23.70;99.90
4431;DHT22;2228;48.140;11.488;2023-09-30T13:35:19;23.10;99.90
4431;DHT22;2228;48.140;11.488;2023-09-30T13:37:45;22.60;99.90
4431;DHT22;2228;48.140;11.488;2023-09-30T13:40:13;22.10;99.90
4431;DHT22;2228;48.140;11.488;2023-09-30T13:42:40;22.30;99.90
4431;DHT22;2228;48.140;11.488;2023-09-30T13:45:08;22.80;99.90
4431;DHT22;2228;48.140;11.488;2023-09-30T13:47:36;23.40;99.90
4431;DHT22;2228;48.140;11.488;2023-09-30T13:50:05;23.80;99.90
4431;DHT22;2228;48.140;11.488;2023-09-30T13:52:33;23.40;99.90
4431;DHT22;2228;48.140;11.488;2023-09-30T13:55:00;23.50;99.90
4431;DHT22;2228;48.140;11.488;2023-09-30T13:57:28;23.60;99.90
4431;DHT22;2228;48.140;11.488;2023-09-30T13:59:55;23.80;99.90
4431;DHT22;2228;48.140;11.488;2023-09-30T14:02:22;23.60;99.90
4431;DHT22;2228;48.140;11.488;2023-09-30T14:04:49;23.80;99.90
4431;DHT22;2228;48.140;11.488;2023-09-30T14:07:18;24.00;99.90
4431;DHT22;2228;48.140;11.488;2023-09-30T14:09:44;24.20;99.90
4431;DHT22;2228;48.140;11.488;2023-09-30T14:12:11;24.60;99.90
4431;DHT22;2228;48.140;11.488;2023-09-30T14:14:38;25.20;99.90
4431;DHT22;2228;48.140;11.488;2023-09-30T14:17:05;25.70;99.90
4431;DHT22;2228;48.140;11.488;2023-09-30T14:19:36;25.60;99.90
4431;DHT22;2228;48.140;11.488;2023-09-30T14:22:04;25.80;99.90
4431;DHT22;2228;48.140;11.488;2023-09-30T14:24:33;25.50;99.90
4431;DHT22;2228;48.140;11.488;2023-09-30T14:27:00;25.00;99.90
4431;DHT22;2228;48.140;11.488;2023-09-30T14:29:27;24.80;99.90
4431;DHT22;2228;48.140;11.488;2023-09-30T14:31:54;24.40;99.90
4431;DHT22;2228;48.140;11.488;2023-09-30T14:34:22;23.90;99.90
4431;DHT22;2228;48.140;11.488;2023-09-30T14:36:49;23.70;99.90
4431;DHT22;2228;48.140;11.488;2023-09-30T14:39:16;23.40;99.90
4431;DHT22;2228;48.140;11.488;2023-09-30T14:41:45;23.20;99.90
4431;DHT22;2228;48.140;11.488;2023-09-30T14:44:12;22.80;99.90
4431;DHT22;2228;48.140;11.488;2023-09-30T14:46:39;22.10;99.90
4431;DHT22;2228;48.140;11.488;2023-09-30T14:49:06;22.30;99.90
4431;DHT22;2228;48.140;11.488;2023-09-30T14:51:33;22.10;99.90
4431;DHT22;2228;48.140;11.488;2023-09-30T14:54:00;21.90;99.90
4431;DHT22;2228;48.140;11.488;2023-09-30T14:56:28;21.70;99.90
4431;DHT22;2228;48.140;11.488;2023-09-30T14:58:56;21.40;99.90
4431;DHT22;2228;48.140;11.488;2023-09-30T15:01:23;21.40;99.90
4431;DHT22;2228;48.140;11.488;2023-09-30T15:03:51;21.20;99.90
4431;DHT22;2228;48.140;11.488;2023-09-30T15:06:18;21.20;99.90
4431;DHT22;2228;48.140;11.488;2023-09-30T15:08:46;21.50;99.90
4431;DHT22;2228;48.140;11.488;2023-09-30T15:11:13;21.70;99.90
4431;DHT22;2228;48.140;11.488;2023-09-30T15:13:41;21.50;99.90
4431;DHT22;2228;48.140;11.488;2023-09-30T15:16:16;21.80;99.90
4431;DHT22;2228;48.140;11.488;2023-09-30T15:18:44;22.00;99.90
4431;DHT22;2228;48.140;11.488;2023-09-30T15:21:12;22.00;99.90
4431;DHT22;2228;48.140;11.488;2023-09-30T15:23:39;21.90;99.90
4431;DHT22;2228;48.140;11.488;2023-09-30T15:26:06;22.20;99.90
4431;DHT22;2228;48.140;11.488;2023-09-30T15:28:33;22.00;99.90
4431;DHT22;2228;48.140;11.488;2023-09-30T15:31:01;21.70;99.90
4431;DHT22;2228;48.140;11.488;2023-09-30T15:33:29;21.70;99.90
4431;DHT22;2228;48.140;11.488;2023-09-30T15:35:56;21.80;99.90
4431;DHT22;2228;48.140;11.488;2023-09-30T15:38:23;21.90;99.90
4431;DHT22;2228;48.140;11.488;2023-09-30T15:40:51;21.90;99.90
4431;DHT22;2228;48.140;11.488;2023-09-30T15:43:19;21.90;99.90
4431;DHT22;2228;48.140;11.488;2023-09-30T15:45:50;21.90;99.90
4431;DHT22;2228;48.140;11.488;2023-09-30T15:48:17;21.40;99.90
4431;DHT22;2228;48.140;11.488;2023-09-30T15:50:45;21.20;99.90
4431;DHT22;2228;48.140;11.488;2023-09-30T15:53:12;21.00;99.90
4431;DHT22;2228;48.140;11.488;2023-09-30T15:55:39;20.90;99.90
4431;DHT22;2228;48.140;11.488;2023-09-30T15:58:06;20.90;99.90
4431;DHT22;2228;48.140;11.488;2023-09-30T16:00:35;20.70;99.90
4431;DHT22;2228;48.140;11.488;2023-09-30T16:03:04;20.50;99.90
4431;DHT22;2228;48.140;11.488;2023-09-30T16:05:31;20.40;99.90
4431;DHT22;2228;48.140;11.488;2023-09-30T16:08:00;20.40;99.90
4431;DHT22;2228;48.140;11.488;2023-09-30T16:10:27;20.40;99.90
4431;DHT22;2228;48.140;11.488;2023-09-30T16:12:55;20.40;99.90
4431;DHT22;2228;48.140;11.488;2023-09-30T16:15:22;20.30;99.90
4431;DHT22;2228;48.140;11.488;2023-09-30T16:17:51;20.20;99.90
4431;DHT22;2228;48.140;11.488;2023-09-30T16:20:18;20.00;99.90
4431;DHT22;2228;48.140;11.488;2023-09-30T16:22:49;20.00;99.90
4431;DHT22;2228;48.140;11.488;2023-09-30T16:25:18;20.00;99.90
4431;DHT22;2228;48.140;11.488;2023-09-30T16:27:45;20.00;99.90